createdAt,value
2018-05-16T00:02:17.309Z,4.60
2018-05-16T00:04:45.699Z,4.32
2018-05-16T00:07:14.006Z,4.17
2018-05-16T00:09:42.329Z,4.07
2018-05-16T00:12:10.664Z,4.10
2018-05-16T00:14:41.603Z,4.63
2018-05-16T00:17:11.865Z,4.56
2018-05-16T00:19:40.335Z,4.40
2018-05-16T00:22:08.715Z,3.73
2018-05-16T00:24:37.118Z,4.33
2018-05-16T00:27:05.541Z,4.17
2018-05-16T00:29:34.671Z,3.80
2018-05-16T00:32:03.163Z,4.07
2018-05-16T00:34:31.575Z,4.20
2018-05-16T00:37:00.006Z,4.20
2018-05-16T00:39:29.304Z,3.83
2018-05-16T00:41:58.598Z,3.62
2018-05-16T00:44:28.014Z,3.90
2018-05-16T00:46:56.501Z,4.27
2018-05-16T00:49:24.908Z,4.10
2018-05-16T00:51:53.194Z,3.80
2018-05-16T00:54:21.544Z,4.40
2018-05-16T00:56:49.929Z,3.83
2018-05-16T00:59:18.526Z,4.00
2018-05-16T01:01:46.957Z,4.03
2018-05-16T01:04:16.170Z,4.20
2018-05-16T01:06:44.506Z,4.27
2018-05-16T01:09:12.919Z,3.70
2018-05-16T01:11:42.346Z,4.03
2018-05-16T01:14:10.949Z,4.00
2018-05-16T01:16:39.289Z,3.80
2018-05-16T01:19:08.439Z,3.80
2018-05-16T01:21:36.769Z,3.80
2018-05-16T01:24:05.059Z,4.53
2018-05-16T01:26:33.595Z,4.37
2018-05-16T01:29:02.041Z,3.80
2018-05-16T01:31:30.643Z,4.40
2018-05-16T01:33:59.003Z,3.85
2018-05-16T01:36:27.304Z,3.83
2018-05-16T01:38:55.629Z,4.13
2018-05-16T01:41:23.950Z,3.80
2018-05-16T01:43:52.470Z,4.37
2018-05-16T01:46:22.280Z,4.10
2018-05-16T01:49:10.475Z,3.97
2018-05-16T01:51:39.065Z,4.30
2018-05-16T01:54:07.399Z,4.43
2018-05-16T01:56:35.806Z,4.00
2018-05-16T01:59:04.262Z,4.23
2018-05-16T02:01:32.614Z,3.90
2018-05-16T02:04:02.063Z,4.50
2018-05-16T02:06:31.371Z,4.97
2018-05-16T02:08:59.680Z,4.87
2018-05-16T02:11:28.012Z,4.77
2018-05-16T02:13:56.365Z,4.33
2018-05-16T02:16:25.521Z,4.43
2018-05-16T02:18:54.020Z,16.73
2018-05-16T02:21:23.122Z,15.13
2018-05-16T02:23:52.359Z,5.80
2018-05-16T02:26:20.653Z,4.50
2018-05-16T02:28:48.980Z,4.50
2018-05-16T02:31:18.156Z,4.70
2018-05-16T02:33:46.629Z,5.18
2018-05-16T02:36:15.266Z,4.30
2018-05-16T02:38:43.684Z,4.67
2018-05-16T02:41:12.006Z,4.87
2018-05-16T02:43:41.140Z,4.20
2018-05-16T02:46:09.487Z,4.60
2018-05-16T02:48:37.841Z,4.30
2018-05-16T02:51:06.137Z,4.60
2018-05-16T02:53:35.230Z,4.10
2018-05-16T02:56:04.312Z,4.40
2018-05-16T02:58:33.397Z,4.47
2018-05-16T03:01:01.816Z,23.58
2018-05-16T03:03:30.250Z,34.13
2018-05-16T03:05:58.806Z,8.18
2018-05-16T03:08:27.279Z,6.27
2018-05-16T03:10:57.119Z,5.18
2018-05-16T03:13:25.806Z,4.77
2018-05-16T03:15:54.199Z,4.13
2018-05-16T03:18:22.556Z,4.87
2018-05-16T03:20:51.095Z,5.40
2018-05-16T03:23:19.446Z,5.45
2018-05-16T03:25:48.001Z,4.55
2018-05-16T03:28:16.356Z,5.10
2018-05-16T03:30:44.700Z,5.00
2018-05-16T03:33:13.890Z,5.10
2018-05-16T03:35:43.015Z,5.20
2018-05-16T03:38:13.112Z,4.87
2018-05-16T03:40:43.354Z,4.60
2018-05-16T03:43:11.681Z,5.30
2018-05-16T03:45:40.035Z,5.27
2018-05-16T03:48:08.476Z,6.13
2018-05-16T03:50:36.827Z,5.60
2018-05-16T03:53:05.111Z,5.77
2018-05-16T03:55:34.396Z,5.30
2018-05-16T03:58:29.439Z,4.77
2018-05-16T04:01:15.630Z,5.63
2018-05-16T04:04:01.771Z,6.20
2018-05-16T04:06:30.215Z,5.67
2018-05-16T04:08:58.564Z,7.10
2018-05-16T04:11:27.683Z,7.73
2018-05-16T04:13:57.142Z,6.33
2018-05-16T04:16:25.638Z,6.43
2018-05-16T04:18:54.182Z,7.43
2018-05-16T04:21:22.531Z,7.30
2018-05-16T04:23:51.036Z,6.83
2018-05-16T04:26:19.596Z,7.53
2018-05-16T04:28:48.318Z,6.87
2018-05-16T04:31:17.602Z,7.33
2018-05-16T04:33:45.941Z,5.90
2018-05-16T04:36:15.006Z,7.60
2018-05-16T04:38:43.341Z,7.15
2018-05-16T04:41:11.744Z,6.40
2018-05-16T04:43:40.084Z,6.67
2018-05-16T04:46:08.420Z,7.57
2018-05-16T04:48:37.004Z,6.47
2018-05-16T04:51:05.445Z,6.10
2018-05-16T04:53:33.762Z,5.77
2018-05-16T04:56:02.125Z,6.30
2018-05-16T04:58:30.438Z,5.70
2018-05-16T05:00:59.586Z,5.87
2018-05-16T05:03:28.023Z,7.40
2018-05-16T05:05:56.412Z,6.53
2018-05-16T05:08:24.814Z,6.50
2018-05-16T05:10:54.116Z,6.57
2018-05-16T05:13:22.476Z,7.20
2018-05-16T05:15:50.772Z,5.80
2018-05-16T05:18:19.332Z,8.03
2018-05-16T05:20:47.720Z,6.47
2018-05-16T05:23:16.104Z,7.50
2018-05-16T05:25:44.644Z,7.13
2018-05-16T05:28:13.821Z,7.03
2018-05-16T05:30:42.120Z,7.40
2018-05-16T05:33:10.481Z,8.17
2018-05-16T05:35:38.795Z,7.17
2018-05-16T05:38:08.031Z,6.87
2018-05-16T05:40:36.384Z,7.83
2018-05-16T05:43:04.767Z,7.47
2018-05-16T05:45:33.241Z,8.37
2018-05-16T05:48:01.812Z,19.63
2018-05-16T05:50:30.276Z,12.17
2018-05-16T05:52:59.530Z,7.80
2018-05-16T05:55:27.836Z,7.37
2018-05-16T05:57:56.322Z,6.47
2018-05-16T06:00:24.807Z,7.20
2018-05-16T06:02:54.209Z,5.93
2018-05-16T06:05:22.633Z,5.68
2018-05-16T06:07:50.952Z,6.77
2018-05-16T06:10:19.321Z,7.00
2018-05-16T06:12:48.157Z,7.00
2018-05-16T06:15:16.560Z,7.03
2018-05-16T06:17:44.925Z,8.67
2018-05-16T06:20:13.423Z,11.53
2018-05-16T06:22:41.754Z,9.03
2018-05-16T06:25:10.355Z,7.97
2018-05-16T06:27:39.421Z,7.63
2018-05-16T06:30:07.968Z,8.23
2018-05-16T06:32:36.514Z,7.80
2018-05-16T06:35:04.947Z,7.67
2018-05-16T06:37:33.878Z,8.13
2018-05-16T06:40:02.370Z,7.80
2018-05-16T06:42:31.006Z,7.33
2018-05-16T06:44:59.360Z,7.73
2018-05-16T06:47:27.702Z,7.83
2018-05-16T06:49:56.905Z,8.73
2018-05-16T06:52:25.994Z,8.10
2018-05-16T06:54:55.266Z,9.10
2018-05-16T06:57:23.612Z,10.27
2018-05-16T06:59:52.016Z,12.87
2018-05-16T07:02:21.174Z,11.87
2018-05-16T07:04:49.641Z,12.05
2018-05-16T07:07:18.031Z,15.23
2018-05-16T07:09:46.545Z,10.48
2018-05-16T07:12:16.005Z,12.27
2018-05-16T07:14:44.405Z,13.40
2018-05-16T07:17:12.774Z,11.83
2018-05-16T07:19:41.180Z,13.10
2018-05-16T07:22:09.543Z,11.73
2018-05-16T07:24:38.795Z,11.40
2018-05-16T07:27:07.320Z,12.57
2018-05-16T07:29:35.647Z,11.37
2018-05-16T07:32:03.972Z,8.48
2018-05-16T07:34:32.330Z,9.30
2018-05-16T07:37:00.786Z,8.80
2018-05-16T07:39:29.336Z,9.03
2018-05-16T07:41:58.485Z,6.82
2018-05-16T07:44:27.745Z,7.83
2018-05-16T07:46:56.281Z,7.53
2018-05-16T07:49:24.661Z,7.70
2018-05-16T07:51:53.046Z,7.15
2018-05-16T07:54:21.484Z,7.82
2018-05-16T07:56:50.610Z,8.25
2018-05-16T07:59:19.414Z,7.30
2018-05-16T08:01:47.763Z,8.30
2018-05-16T08:04:16.960Z,8.27
2018-05-16T08:06:45.461Z,8.23
2018-05-16T08:09:13.817Z,8.03
2018-05-16T08:11:44.022Z,7.72
2018-05-16T08:14:12.487Z,7.90
2018-05-16T08:16:40.913Z,7.70
2018-05-16T08:19:09.382Z,8.60
2018-05-16T08:21:38.517Z,9.27
2018-05-16T08:24:07.153Z,8.40
2018-05-16T08:26:36.307Z,7.37
2018-05-16T08:29:04.766Z,8.73
2018-05-16T08:31:33.172Z,8.70
2018-05-16T08:34:01.612Z,9.00
2018-05-16T08:36:29.957Z,8.38
2018-05-16T08:38:58.262Z,7.87
2018-05-16T08:41:26.712Z,8.83
2018-05-16T08:43:56.993Z,8.67
2018-05-16T08:46:25.556Z,8.50
2018-05-16T08:48:53.992Z,7.90
2018-05-16T08:51:22.421Z,8.83
2018-05-16T08:53:50.787Z,7.70
2018-05-16T08:56:19.316Z,6.83
2018-05-16T08:58:47.767Z,6.87
2018-05-16T09:01:16.154Z,6.65
2018-05-16T09:03:44.461Z,7.10
2018-05-16T09:06:12.826Z,7.43
2018-05-16T09:08:41.221Z,7.37
2018-05-16T09:11:09.567Z,7.37
2018-05-16T09:13:37.910Z,7.07
2018-05-16T09:16:07.055Z,7.23
2018-05-16T09:18:35.497Z,7.93
2018-05-16T09:21:04.110Z,7.20
2018-05-16T09:23:32.562Z,7.93
2018-05-16T09:26:01.133Z,7.30
2018-05-16T09:28:30.334Z,7.40
2018-05-16T09:30:59.442Z,7.10
2018-05-16T09:33:27.956Z,6.90
2018-05-16T09:35:56.360Z,7.40
2018-05-16T09:38:24.801Z,7.07
2018-05-16T09:40:53.143Z,7.57
2018-05-16T09:43:22.762Z,7.87
2018-05-16T09:45:51.544Z,7.33
2018-05-16T09:48:20.855Z,8.40
2018-05-16T09:50:49.235Z,7.63
2018-05-16T09:53:17.817Z,8.47
2018-05-16T09:55:46.990Z,8.27
2018-05-16T09:58:16.227Z,8.53
2018-05-16T10:00:44.722Z,9.32
2018-05-16T10:03:13.142Z,8.50
2018-05-16T10:05:41.533Z,8.33
2018-05-16T10:08:10.654Z,7.82
2018-05-16T10:10:39.008Z,9.10
2018-05-16T10:13:07.393Z,8.57
2018-05-16T10:15:35.769Z,8.40
2018-05-16T10:18:04.986Z,8.30
2018-05-16T10:20:33.482Z,8.73
2018-05-16T10:23:01.863Z,8.00
2018-05-16T10:25:30.207Z,9.17
2018-05-16T10:27:58.561Z,9.67
2018-05-16T10:30:26.945Z,9.07
2018-05-16T10:32:56.075Z,9.63
2018-05-16T10:35:24.482Z,9.15
2018-05-16T10:37:52.987Z,8.33
2018-05-16T10:40:21.427Z,8.25
2018-05-16T10:42:49.753Z,10.70
2018-05-16T10:45:18.101Z,8.47
2018-05-16T10:47:46.461Z,9.27
2018-05-16T10:50:14.798Z,14.33
2018-05-16T10:52:43.918Z,11.47
2018-05-16T10:55:12.274Z,11.00
2018-05-16T10:57:41.413Z,11.27
2018-05-16T11:00:09.723Z,11.00
2018-05-16T11:02:38.084Z,12.40
2018-05-16T11:05:06.489Z,9.20
2018-05-16T11:07:35.836Z,7.33
2018-05-16T11:10:05.194Z,9.30
2018-05-16T11:12:33.682Z,8.63
2018-05-16T11:15:03.624Z,9.70
2018-05-16T11:17:34.025Z,9.83
2018-05-16T11:20:02.906Z,10.90
2018-05-16T11:22:33.229Z,14.17
2018-05-16T11:25:02.528Z,10.97
2018-05-16T11:27:31.875Z,9.43
2018-05-16T11:30:00.229Z,8.10
2018-05-16T11:32:29.516Z,9.30
2018-05-16T11:34:58.629Z,9.00
2018-05-16T11:37:27.813Z,10.37
2018-05-16T11:39:56.968Z,9.97
2018-05-16T11:42:25.332Z,9.40
2018-05-16T11:44:54.512Z,10.77
2018-05-16T11:47:22.874Z,10.43
2018-05-16T11:49:52.023Z,10.18
2018-05-16T11:52:20.524Z,9.90
2018-05-16T11:54:49.069Z,9.67
2018-05-16T11:57:18.129Z,12.40
2018-05-16T11:59:46.785Z,13.97
2018-05-16T12:02:15.960Z,10.77
2018-05-16T12:04:44.554Z,10.67
2018-05-16T12:07:12.971Z,10.23
2018-05-16T12:09:41.587Z,10.67
2018-05-16T12:12:09.985Z,11.32
2018-05-16T12:14:38.614Z,11.55
2018-05-16T12:17:06.817Z,13.23
2018-05-16T12:19:35.328Z,14.60
2018-05-16T12:22:04.014Z,12.95
2018-05-16T12:24:32.379Z,27.93
2018-05-16T12:27:00.716Z,17.20
2018-05-16T12:29:29.215Z,13.17
2018-05-16T12:31:58.522Z,14.20
2018-05-16T12:34:26.882Z,12.00
2018-05-16T12:36:56.125Z,14.23
2018-05-16T12:39:25.043Z,13.47
2018-05-16T12:41:53.441Z,14.35
2018-05-16T12:44:21.958Z,12.00
2018-05-16T12:46:50.402Z,10.95
2018-05-16T12:49:19.571Z,9.57
2018-05-16T12:51:47.883Z,8.98
2018-05-16T12:54:16.207Z,11.93
2018-05-16T12:56:44.552Z,10.13
2018-05-16T12:59:12.930Z,10.67
2018-05-16T13:01:41.410Z,15.37
2018-05-16T13:04:09.956Z,10.20
2018-05-16T13:06:38.323Z,8.20
2018-05-16T13:09:06.737Z,8.43
2018-05-16T13:11:35.944Z,7.33
2018-05-16T13:14:05.132Z,8.60
2018-05-16T13:16:34.357Z,7.72
2018-05-16T13:19:02.702Z,8.20
2018-05-16T13:21:31.846Z,7.90
2018-05-16T13:24:00.184Z,9.00
2018-05-16T13:26:29.322Z,8.63
2018-05-16T13:28:57.704Z,10.40
2018-05-16T13:31:26.458Z,7.87
2018-05-16T13:33:55.836Z,8.93
2018-05-16T13:36:24.242Z,7.57
2018-05-16T13:38:52.624Z,6.90
2018-05-16T13:41:20.995Z,6.53
2018-05-16T13:43:50.205Z,8.25
2018-05-16T13:46:18.857Z,6.53
2018-05-16T13:48:47.358Z,7.32
2018-05-16T13:51:16.419Z,7.17
2018-05-16T13:53:44.841Z,5.82
2018-05-16T13:56:13.282Z,7.40
2018-05-16T13:58:41.738Z,8.40
2018-05-16T14:01:10.072Z,8.50
2018-05-16T14:03:38.473Z,8.40
2018-05-16T14:06:06.909Z,7.50
2018-05-16T14:08:35.237Z,7.55
2018-05-16T14:11:03.619Z,6.13
2018-05-16T14:13:32.584Z,6.40
2018-05-16T14:16:00.997Z,6.43
2018-05-16T14:18:29.439Z,5.70
2018-05-16T14:20:57.953Z,5.85
2018-05-16T14:23:27.378Z,8.85
2018-05-16T14:25:55.773Z,7.20
2018-05-16T14:28:25.034Z,5.53
2018-05-16T14:30:54.508Z,5.57
2018-05-16T14:33:22.944Z,5.23
2018-05-16T14:35:51.475Z,5.43
2018-05-16T14:38:19.897Z,6.40
2018-05-16T14:40:48.348Z,5.73
2018-05-16T14:43:16.897Z,5.57
2018-05-16T14:45:46.140Z,5.43
2018-05-16T14:48:14.595Z,5.80
2018-05-16T14:50:43.022Z,5.20
2018-05-16T14:53:12.183Z,5.17
2018-05-16T14:55:40.569Z,5.60
2018-05-16T14:58:08.906Z,5.93
2018-05-16T15:00:38.073Z,5.57
2018-05-16T15:03:07.855Z,6.23
2018-05-16T15:05:36.302Z,6.23
2018-05-16T15:08:05.481Z,6.63
2018-05-16T15:10:34.878Z,6.87
2018-05-16T15:13:03.203Z,7.57
2018-05-16T15:15:31.553Z,8.57
2018-05-16T15:18:00.725Z,7.23
2018-05-16T15:20:29.202Z,6.85
2018-05-16T15:22:57.962Z,7.23
2018-05-16T15:25:26.444Z,7.75
2018-05-16T15:27:54.773Z,7.03
2018-05-16T15:30:23.943Z,7.70
2018-05-16T15:32:52.289Z,6.90
2018-05-16T15:35:20.617Z,6.83
2018-05-16T15:37:50.299Z,7.20
2018-05-16T15:40:19.263Z,7.37
2018-05-16T15:42:47.869Z,6.90
2018-05-16T15:45:16.241Z,6.53
2018-05-16T15:47:44.590Z,5.70
2018-05-16T15:50:13.205Z,6.77
2018-05-16T15:52:41.797Z,6.30
2018-05-16T15:55:10.210Z,6.17
2018-05-16T15:57:38.552Z,5.63
2018-05-16T16:00:10.896Z,5.17
2018-05-16T16:02:39.292Z,5.27
2018-05-16T16:05:07.597Z,5.53
2018-05-16T16:07:37.554Z,5.30
2018-05-16T16:10:05.999Z,13.65
2018-05-16T16:12:34.567Z,5.70
2018-05-16T16:15:02.876Z,5.57
2018-05-16T16:17:32.085Z,5.93
2018-05-16T16:20:00.542Z,7.40
2018-05-16T16:22:29.093Z,13.82
2018-05-16T16:24:58.715Z,14.13
2018-05-16T16:27:27.957Z,9.13
2018-05-16T16:29:56.322Z,8.43
2018-05-16T16:32:24.814Z,6.53
2018-05-16T16:34:53.226Z,6.03
2018-05-16T16:37:21.576Z,6.03
2018-05-16T16:39:50.188Z,6.33
2018-05-16T16:42:18.652Z,6.47
2018-05-16T16:44:47.109Z,6.53
2018-05-16T16:47:15.560Z,5.17
2018-05-16T16:49:44.118Z,4.37
2018-05-16T16:52:12.528Z,4.97
2018-05-16T16:54:41.667Z,5.37
2018-05-16T16:57:10.241Z,6.30
2018-05-16T16:59:38.583Z,5.50
2018-05-16T17:02:07.885Z,5.15
2018-05-16T17:04:36.343Z,5.90
2018-05-16T17:09:40.332Z,5.35
2018-05-16T17:12:08.751Z,5.30
2018-05-16T17:14:38.185Z,5.10
2018-05-16T17:17:06.696Z,4.27
2018-05-16T17:19:35.570Z,5.23
2018-05-16T17:22:04.816Z,5.40
2018-05-16T17:24:33.311Z,6.00
2018-05-16T17:27:02.530Z,8.00
2018-05-16T17:29:31.193Z,7.67
2018-05-16T17:32:00.010Z,6.80
2018-05-16T17:34:29.618Z,7.93
2018-05-16T17:36:57.980Z,5.87
2018-05-16T17:39:26.690Z,6.68
2018-05-16T17:41:55.402Z,5.63
2018-05-16T17:44:24.057Z,5.23
2018-05-16T17:46:52.440Z,5.70
2018-05-16T17:49:21.016Z,5.87
2018-05-16T17:51:49.952Z,4.80
2018-05-16T17:54:19.210Z,5.23
2018-05-16T17:56:47.575Z,4.57
2018-05-16T17:59:16.217Z,4.57
2018-05-16T18:01:44.857Z,4.57
2018-05-16T18:04:13.362Z,4.10
2018-05-16T18:06:41.911Z,3.70
2018-05-16T18:09:10.492Z,4.30
2018-05-16T18:11:38.918Z,4.33
2018-05-16T18:14:25.957Z,3.83
2018-05-16T18:17:12.182Z,4.20
2018-05-16T18:19:40.600Z,4.40
2018-05-16T18:22:09.349Z,3.50
2018-05-16T18:24:37.796Z,3.80
2018-05-16T18:27:06.356Z,3.77
2018-05-16T18:29:35.921Z,4.20
2018-05-16T18:32:04.489Z,15.37
2018-05-16T18:34:32.920Z,8.33
2018-05-16T18:37:02.299Z,7.40
2018-05-16T18:39:30.857Z,5.20
2018-05-16T18:41:59.309Z,6.27
2018-05-16T18:44:27.770Z,5.47
2018-05-16T18:46:56.962Z,5.53
2018-05-16T18:49:25.425Z,4.62
2018-05-16T18:51:54.190Z,5.07
2018-05-16T18:54:22.693Z,5.20
2018-05-16T18:56:51.153Z,4.80
2018-05-16T18:59:19.905Z,5.20
2018-05-16T19:01:48.358Z,5.43
2018-05-16T19:04:17.774Z,4.70
2018-05-16T19:06:46.251Z,4.83
2018-05-16T19:09:14.693Z,5.27
2018-05-16T19:11:43.308Z,5.43
2018-05-16T19:14:11.738Z,4.60
2018-05-16T19:16:40.150Z,5.37
2018-05-16T19:19:09.495Z,4.93
2018-05-16T19:21:37.922Z,5.93
2018-05-16T19:24:07.913Z,6.20
2018-05-16T19:26:36.713Z,5.93
2018-05-16T19:29:05.083Z,7.40
2018-05-16T19:31:33.593Z,7.57
2018-05-16T19:34:01.981Z,6.67
2018-05-16T19:36:30.511Z,7.40
2018-05-16T19:38:59.321Z,6.93
2018-05-16T19:41:28.073Z,8.77
2018-05-16T19:43:56.903Z,8.23
2018-05-16T19:46:26.286Z,10.18
2018-05-16T19:48:54.823Z,11.20
2018-05-16T19:51:23.190Z,7.77
2018-05-16T19:53:51.624Z,8.00
2018-05-16T19:56:19.988Z,7.70
2018-05-16T19:58:49.485Z,7.37
2018-05-16T20:01:18.168Z,7.23
2018-05-16T20:03:46.585Z,7.80
2018-05-16T20:06:15.165Z,6.45
2018-05-16T20:08:43.804Z,7.30
2018-05-16T20:11:12.389Z,7.73
2018-05-16T20:13:40.754Z,7.53
2018-05-16T20:16:09.476Z,6.80
2018-05-16T20:18:38.730Z,7.87
2018-05-16T20:21:07.130Z,6.97
2018-05-16T20:23:35.560Z,7.82
2018-05-16T20:26:03.931Z,6.60
2018-05-16T20:28:33.864Z,7.10
2018-05-16T20:31:04.293Z,7.33
2018-05-16T20:33:33.444Z,7.17
2018-05-16T20:36:01.875Z,6.90
2018-05-16T20:38:31.364Z,8.23
2018-05-16T20:41:00.810Z,8.20
2018-05-16T20:43:29.261Z,6.30
2018-05-16T20:45:57.874Z,7.95
2018-05-16T20:48:26.424Z,7.23
2018-05-16T20:50:55.544Z,6.28
2018-05-16T20:53:23.911Z,7.07
2018-05-16T20:55:52.300Z,6.93
2018-05-16T20:58:20.641Z,8.70
2018-05-16T21:00:49.804Z,7.80
2018-05-16T21:03:18.299Z,8.83
2018-05-16T21:05:49.594Z,8.37
2018-05-16T21:08:18.075Z,8.50
2018-05-16T21:10:46.501Z,7.50
2018-05-16T21:13:14.926Z,8.80
2018-05-16T21:15:44.157Z,8.30
2018-05-16T21:18:12.730Z,8.53
2018-05-16T21:20:41.376Z,8.13
2018-05-16T21:23:10.571Z,7.87
2018-05-16T21:25:39.046Z,9.50
2018-05-16T21:28:08.280Z,7.80
2018-05-16T21:30:36.658Z,7.50
2018-05-16T21:33:05.132Z,7.97
2018-05-16T21:35:33.763Z,7.70
2018-05-16T21:38:02.217Z,7.53
2018-05-16T21:40:30.691Z,8.20
2018-05-16T21:42:59.106Z,7.50
2018-05-16T21:45:27.615Z,7.47
2018-05-16T21:47:56.039Z,7.47
2018-05-16T21:50:24.345Z,7.23
2018-05-16T21:52:52.719Z,7.53
2018-05-16T21:55:21.068Z,8.50
2018-05-16T21:57:49.632Z,7.73
2018-05-16T22:00:18.109Z,6.78
2018-05-16T22:02:47.344Z,6.50
2018-05-16T22:05:15.775Z,7.50
2018-05-16T22:07:44.102Z,7.33
2018-05-16T22:10:12.679Z,6.53
2018-05-16T22:12:42.759Z,6.28
2018-05-16T22:15:11.931Z,8.00
2018-05-16T22:17:40.301Z,7.33
2018-05-16T22:20:08.619Z,7.50
2018-05-16T22:22:37.131Z,7.77
2018-05-16T22:25:05.489Z,6.53
2018-05-16T22:27:33.949Z,6.80
2018-05-16T22:30:01.674Z,6.47
2018-05-16T22:32:35.440Z,6.45
2018-05-16T22:35:09.202Z,6.63
2018-05-16T22:37:43.276Z,5.83
2018-05-16T22:40:17.343Z,6.83
2018-05-16T22:42:45.138Z,6.83
2018-05-16T22:45:18.917Z,7.17
2018-05-16T22:47:48.013Z,6.13
2018-05-16T22:50:16.425Z,7.27
2018-05-16T22:52:45.021Z,6.22
2018-05-16T22:55:13.469Z,6.55
2018-05-16T22:57:41.940Z,6.73
2018-05-16T23:00:10.465Z,6.20
2018-05-16T23:02:38.885Z,6.10
2018-05-16T23:05:07.217Z,6.43
2018-05-16T23:07:35.589Z,6.13
2018-05-16T23:10:04.140Z,5.50
2018-05-16T23:12:33.247Z,5.63
2018-05-16T23:15:02.392Z,5.43
2018-05-16T23:17:30.899Z,5.23
2018-05-16T23:20:00.110Z,5.50
2018-05-16T23:22:29.188Z,4.90
2018-05-16T23:24:57.572Z,5.33
2018-05-16T23:27:26.795Z,5.25
2018-05-16T23:29:56.211Z,5.20
2018-05-16T23:32:24.649Z,5.43
2018-05-16T23:34:53.034Z,5.07
2018-05-16T23:37:22.180Z,4.73
2018-05-16T23:39:50.569Z,4.40
2018-05-16T23:42:20.239Z,4.75
2018-05-16T23:44:50.482Z,3.77
2018-05-16T23:47:18.976Z,4.73
2018-05-16T23:49:47.435Z,4.57
2018-05-16T23:52:15.794Z,5.27
2018-05-16T23:54:45.082Z,4.60
2018-05-16T23:57:13.501Z,4.57
2018-05-16T23:59:41.779Z,4.50
